sensor_id;sensor_type;location;lat;lon;timestamp;P1;durP1;ratioP1;P2;durP2;ratioP2
66272;SDS011;58450;52.150;4.466;2023-02-12T00:01:00;18.13;;;9.10;;
66272;SDS011;58450;52.150;4.466;2023-02-12T00:03:28;16.40;;;9.32;;
66272;SDS011;58450;52.150;4.466;2023-02-12T00:05:59;16.92;;;9.32;;
66272;SDS011;58450;52.150;4.466;2023-02-12T00:08:27;18.80;;;10.13;;
66272;SDS011;58450;52.150;4.466;2023-02-12T00:10:57;16.40;;;9.10;;
66272;SDS011;58450;52.150;4.466;2023-02-12T00:13:24;18.77;;;9.65;;
66272;SDS011;58450;52.150;4.466;2023-02-12T00:15:52;17.50;;;9.57;;
66272;SDS011;58450;52.150;4.466;2023-02-12T00:18:19;16.33;;;9.57;;
66272;SDS011;58450;52.150;4.466;2023-02-12T00:20:47;14.82;;;8.95;;
66272;SDS011;58450;52.150;4.466;2023-02-12T00:23:14;16.23;;;9.57;;
66272;SDS011;58450;52.150;4.466;2023-02-12T00:25:42;16.23;;;9.25;;
66272;SDS011;58450;52.150;4.466;2023-02-12T00:28:11;18.83;;;10.07;;
66272;SDS011;58450;52.150;4.466;2023-02-12T00:30:38;16.70;;;9.93;;
66272;SDS011;58450;52.150;4.466;2023-02-12T00:33:06;15.85;;;9.50;;
66272;SDS011;58450;52.150;4.466;2023-02-12T00:35:33;16.08;;;8.90;;
66272;SDS011;58450;52.150;4.466;2023-02-12T00:38:01;16.20;;;8.93;;
66272;SDS011;58450;52.150;4.466;2023-02-12T00:40:28;15.00;;;9.05;;
66272;SDS011;58450;52.150;4.466;2023-02-12T00:42:56;14.88;;;8.90;;
66272;SDS011;58450;52.150;4.466;2023-02-12T00:45:25;17.23;;;9.88;;
66272;SDS011;58450;52.150;4.466;2023-02-12T00:47:52;17.42;;;9.52;;
66272;SDS011;58450;52.150;4.466;2023-02-12T00:50:20;16.08;;;9.52;;
66272;SDS011;58450;52.150;4.466;2023-02-12T00:52:47;14.40;;;8.60;;
66272;SDS011;58450;52.150;4.466;2023-02-12T00:55:15;15.95;;;8.15;;
66272;SDS011;58450;52.150;4.466;2023-02-12T00:57:43;16.10;;;8.10;;
66272;SDS011;58450;52.150;4.466;2023-02-12T01:00:11;14.48;;;7.95;;
66272;SDS011;58450;52.150;4.466;2023-02-12T01:02:42;16.52;;;8.50;;
66272;SDS011;58450;52.150;4.466;2023-02-12T01:05:09;18.55;;;8.90;;
66272;SDS011;58450;52.150;4.466;2023-02-12T01:07:37;15.57;;;8.07;;
66272;SDS011;58450;52.150;4.466;2023-02-12T01:10:06;12.48;;;7.55;;
66272;SDS011;58450;52.150;4.466;2023-02-12T01:12:35;13.75;;;7.10;;
66272;SDS011;58450;52.150;4.466;2023-02-12T01:15:02;12.40;;;7.43;;
66272;SDS011;58450;52.150;4.466;2023-02-12T01:17:30;11.95;;;6.50;;
66272;SDS011;58450;52.150;4.466;2023-02-12T01:19:59;12.10;;;6.93;;
66272;SDS011;58450;52.150;4.466;2023-02-12T01:22:27;13.02;;;7.13;;
66272;SDS011;58450;52.150;4.466;2023-02-12T01:24:54;13.10;;;7.57;;
66272;SDS011;58450;52.150;4.466;2023-02-12T01:27:22;12.35;;;7.40;;
66272;SDS011;58450;52.150;4.466;2023-02-12T01:29:50;13.02;;;7.38;;
66272;SDS011;58450;52.150;4.466;2023-02-12T01:32:17;12.27;;;6.68;;
66272;SDS011;58450;52.150;4.466;2023-02-12T01:34:45;11.60;;;6.00;;
66272;SDS011;58450;52.150;4.466;2023-02-12T01:37:14;10.93;;;5.88;;
66272;SDS011;58450;52.150;4.466;2023-02-12T01:39:41;10.27;;;5.47;;
66272;SDS011;58450;52.150;4.466;2023-02-12T01:42:09;10.27;;;5.20;;
66272;SDS011;58450;52.150;4.466;2023-02-12T01:44:42;6.93;;;4.55;;
66272;SDS011;58450;52.150;4.466;2023-02-12T01:47:13;8.57;;;3.97;;
66272;SDS011;58450;52.150;4.466;2023-02-12T01:49:44;9.85;;;4.30;;
66272;SDS011;58450;52.150;4.466;2023-02-12T01:52:17;6.97;;;4.15;;
66272;SDS011;58450;52.150;4.466;2023-02-12T01:54:52;7.57;;;4.10;;
66272;SDS011;58450;52.150;4.466;2023-02-12T01:57:26;7.07;;;3.53;;
66272;SDS011;58450;52.150;4.466;2023-02-12T01:59:58;6.70;;;3.53;;
66272;SDS011;58450;52.150;4.466;2023-02-12T02:02:29;6.43;;;3.28;;
66272;SDS011;58450;52.150;4.466;2023-02-12T02:04:59;6.15;;;2.70;;
66272;SDS011;58450;52.150;4.466;2023-02-12T02:07:31;5.47;;;2.70;;
66272;SDS011;58450;52.150;4.466;2023-02-12T02:09:59;6.13;;;3.05;;
66272;SDS011;58450;52.150;4.466;2023-02-12T02:12:28;4.13;;;2.65;;
66272;SDS011;58450;52.150;4.466;2023-02-12T02:15:14;5.28;;;2.30;;
66272;SDS011;58450;52.150;4.466;2023-02-12T02:17:45;3.92;;;2.20;;
66272;SDS011;58450;52.150;4.466;2023-02-12T02:20:35;4.63;;;2.42;;
66272;SDS011;58450;52.150;4.466;2023-02-12T02:33:05;3.67;;;2.00;;
66272;SDS011;58450;52.150;4.466;2023-02-12T02:35:50;4.97;;;2.00;;
66272;SDS011;58450;52.150;4.466;2023-02-12T02:38:29;3.28;;;1.80;;
66272;SDS011;58450;52.150;4.466;2023-02-12T02:41:07;5.10;;;1.90;;
66272;SDS011;58450;52.150;4.466;2023-02-12T02:43:45;5.15;;;1.83;;
66272;SDS011;58450;52.150;4.466;2023-02-12T02:46:19;3.03;;;1.67;;
66272;SDS011;58450;52.150;4.466;2023-02-12T02:48:55;4.72;;;1.65;;
66272;SDS011;58450;52.150;4.466;2023-02-12T02:51:29;4.18;;;1.90;;
66272;SDS011;58450;52.150;4.466;2023-02-12T02:54:03;4.95;;;1.85;;
66272;SDS011;58450;52.150;4.466;2023-02-12T02:56:38;2.67;;;1.50;;
66272;SDS011;58450;52.150;4.466;2023-02-12T02:59:12;2.80;;;1.38;;
66272;SDS011;58450;52.150;4.466;2023-02-12T03:01:49;4.90;;;1.60;;
66272;SDS011;58450;52.150;4.466;2023-02-12T03:04:23;2.85;;;1.40;;
66272;SDS011;58450;52.150;4.466;2023-02-12T03:07:01;3.03;;;1.50;;
66272;SDS011;58450;52.150;4.466;2023-02-12T03:09:36;1.95;;;1.30;;
66272;SDS011;58450;52.150;4.466;2023-02-12T03:12:10;1.92;;;1.40;;
66272;SDS011;58450;52.150;4.466;2023-02-12T03:14:45;3.25;;;1.80;;
66272;SDS011;58450;52.150;4.466;2023-02-12T03:17:22;3.30;;;1.80;;
66272;SDS011;58450;52.150;4.466;2023-02-12T03:19:57;2.72;;;1.30;;
66272;SDS011;58450;52.150;4.466;2023-02-12T03:22:32;4.97;;;1.90;;
66272;SDS011;58450;52.150;4.466;2023-02-12T03:25:06;3.55;;;1.60;;
66272;SDS011;58450;52.150;4.466;2023-02-12T03:27:40;2.38;;;1.42;;
66272;SDS011;58450;52.150;4.466;2023-02-12T03:30:11;2.85;;;1.38;;
66272;SDS011;58450;52.150;4.466;2023-02-12T03:32:43;2.95;;;1.50;;
66272;SDS011;58450;52.150;4.466;2023-02-12T03:35:20;1.98;;;1.42;;
66272;SDS011;58450;52.150;4.466;2023-02-12T03:38:07;4.45;;;1.85;;
66272;SDS011;58450;52.150;4.466;2023-02-12T03:40:48;5.40;;;1.80;;
66272;SDS011;58450;52.150;4.466;2023-02-12T03:43:26;5.30;;;1.90;;
66272;SDS011;58450;52.150;4.466;2023-02-12T03:46:06;3.30;;;1.60;;
66272;SDS011;58450;52.150;4.466;2023-02-12T03:48:45;2.00;;;1.30;;
66272;SDS011;58450;52.150;4.466;2023-02-12T03:51:24;3.70;;;1.48;;
66272;SDS011;58450;52.150;4.466;2023-02-12T03:54:00;2.72;;;1.50;;
66272;SDS011;58450;52.150;4.466;2023-02-12T03:56:31;5.90;;;2.03;;
66272;SDS011;58450;52.150;4.466;2023-02-12T03:59:06;3.30;;;1.88;;
66272;SDS011;58450;52.150;4.466;2023-02-12T04:01:34;3.97;;;1.90;;
66272;SDS011;58450;52.150;4.466;2023-02-12T04:04:04;5.32;;;2.10;;
66272;SDS011;58450;52.150;4.466;2023-02-12T04:06:34;4.25;;;2.20;;
66272;SDS011;58450;52.150;4.466;2023-02-12T04:09:03;4.18;;;2.05;;
66272;SDS011;58450;52.150;4.466;2023-02-12T04:11:37;6.20;;;2.15;;
66272;SDS011;58450;52.150;4.466;2023-02-12T04:14:21;6.32;;;2.40;;
66272;SDS011;58450;52.150;4.466;2023-02-12T04:16:59;5.20;;;2.53;;
66272;SDS011;58450;52.150;4.466;2023-02-12T04:19:39;4.45;;;2.20;;
66272;SDS011;58450;52.150;4.466;2023-02-12T04:22:28;3.70;;;1.80;;
66272;SDS011;58450;52.150;4.466;2023-02-12T04:25:15;4.43;;;1.70;;
66272;SDS011;58450;52.150;4.466;2023-02-12T04:28:05;3.22;;;1.30;;
66272;SDS011;58450;52.150;4.466;2023-02-12T04:30:41;2.63;;;1.30;;
66272;SDS011;58450;52.150;4.466;2023-02-12T04:33:19;3.10;;;1.58;;
66272;SDS011;58450;52.150;4.466;2023-02-12T04:35:54;3.72;;;1.65;;
66272;SDS011;58450;52.150;4.466;2023-02-12T04:38:29;3.00;;;1.50;;
66272;SDS011;58450;52.150;4.466;2023-02-12T04:41:04;1.35;;;1.23;;
66272;SDS011;58450;52.150;4.466;2023-02-12T04:43:33;4.53;;;1.73;;
66272;SDS011;58450;52.150;4.466;2023-02-12T04:46:03;3.13;;;1.50;;
66272;SDS011;58450;52.150;4.466;2023-02-12T04:48:33;2.90;;;1.52;;
66272;SDS011;58450;52.150;4.466;2023-02-12T04:51:10;2.67;;;1.40;;
66272;SDS011;58450;52.150;4.466;2023-02-12T04:53:37;2.53;;;1.33;;
66272;SDS011;58450;52.150;4.466;2023-02-12T04:56:07;2.65;;;1.30;;
66272;SDS011;58450;52.150;4.466;2023-02-12T04:58:37;2.53;;;1.23;;
66272;SDS011;58450;52.150;4.466;2023-02-12T05:01:05;3.25;;;1.42;;
66272;SDS011;58450;52.150;4.466;2023-02-12T05:03:33;2.92;;;1.20;;
66272;SDS011;58450;52.150;4.466;2023-02-12T05:06:01;2.35;;;1.40;;
66272;SDS011;58450;52.150;4.466;2023-02-12T05:08:31;2.83;;;1.40;;
66272;SDS011;58450;52.150;4.466;2023-02-12T05:11:02;2.38;;;1.20;;
66272;SDS011;58450;52.150;4.466;2023-02-12T05:13:31;3.25;;;1.17;;
66272;SDS011;58450;52.150;4.466;2023-02-12T05:15:59;3.35;;;1.30;;
66272;SDS011;58450;52.150;4.466;2023-02-12T05:18:30;4.65;;;1.73;;
66272;SDS011;58450;52.150;4.466;2023-02-12T05:20:58;2.58;;;1.40;;
66272;SDS011;58450;52.150;4.466;2023-02-12T05:23:28;3.60;;;1.67;;
66272;SDS011;58450;52.150;4.466;2023-02-12T05:25:59;2.75;;;1.42;;
66272;SDS011;58450;52.150;4.466;2023-02-12T05:28:29;4.78;;;1.60;;
66272;SDS011;58450;52.150;4.466;2023-02-12T05:30:58;1.55;;;1.40;;
66272;SDS011;58450;52.150;4.466;2023-02-12T05:33:26;2.17;;;1.40;;
66272;SDS011;58450;52.150;4.466;2023-02-12T05:35:54;3.10;;;1.60;;
66272;SDS011;58450;52.150;4.466;2023-02-12T05:38:21;2.88;;;1.40;;
66272;SDS011;58450;52.150;4.466;2023-02-12T05:40:49;4.93;;;1.60;;
66272;SDS011;58450;52.150;4.466;2023-02-12T05:43:18;3.53;;;1.40;;
66272;SDS011;58450;52.150;4.466;2023-02-12T05:45:45;3.17;;;1.52;;
66272;SDS011;58450;52.150;4.466;2023-02-12T05:48:13;3.40;;;1.40;;
66272;SDS011;58450;52.150;4.466;2023-02-12T05:50:41;1.60;;;1.23;;
66272;SDS011;58450;52.150;4.466;2023-02-12T05:53:08;2.78;;;1.45;;
66272;SDS011;58450;52.150;4.466;2023-02-12T05:55:36;3.33;;;1.58;;
66272;SDS011;58450;52.150;4.466;2023-02-12T05:58:03;3.45;;;1.70;;
66272;SDS011;58450;52.150;4.466;2023-02-12T06:00:32;3.72;;;1.60;;
66272;SDS011;58450;52.150;4.466;2023-02-12T06:03:00;3.55;;;1.38;;
66272;SDS011;58450;52.150;4.466;2023-02-12T06:05:27;2.45;;;1.50;;
66272;SDS011;58450;52.150;4.466;2023-02-12T06:07:55;3.75;;;1.30;;
66272;SDS011;58450;52.150;4.466;2023-02-12T06:10:22;2.35;;;1.40;;
66272;SDS011;58450;52.150;4.466;2023-02-12T06:12:52;3.72;;;1.70;;
66272;SDS011;58450;52.150;4.466;2023-02-12T06:15:20;4.75;;;1.48;;
66272;SDS011;58450;52.150;4.466;2023-02-12T06:17:49;3.35;;;1.40;;
66272;SDS011;58450;52.150;4.466;2023-02-12T06:20:16;3.83;;;1.48;;
66272;SDS011;58450;52.150;4.466;2023-02-12T06:22:44;2.70;;;1.42;;
66272;SDS011;58450;52.150;4.466;2023-02-12T06:25:11;3.35;;;1.63;;
66272;SDS011;58450;52.150;4.466;2023-02-12T06:27:39;4.22;;;1.75;;
66272;SDS011;58450;52.150;4.466;2023-02-12T06:30:07;3.22;;;1.63;;
66272;SDS011;58450;52.150;4.466;2023-02-12T06:32:36;2.22;;;1.40;;
66272;SDS011;58450;52.150;4.466;2023-02-12T06:35:05;1.58;;;1.40;;
66272;SDS011;58450;52.150;4.466;2023-02-12T06:37:33;2.60;;;1.58;;
66272;SDS011;58450;52.150;4.466;2023-02-12T06:40:01;5.15;;;1.75;;
66272;SDS011;58450;52.150;4.466;2023-02-12T06:42:29;2.67;;;1.42;;
66272;SDS011;58450;52.150;4.466;2023-02-12T06:44:57;3.35;;;1.63;;
66272;SDS011;58450;52.150;4.466;2023-02-12T06:47:25;2.88;;;1.40;;
66272;SDS011;58450;52.150;4.466;2023-02-12T06:49:53;3.33;;;1.40;;
66272;SDS011;58450;52.150;4.466;2023-02-12T06:52:22;2.30;;;1.20;;
66272;SDS011;58450;52.150;4.466;2023-02-12T06:54:49;3.28;;;1.30;;
66272;SDS011;58450;52.150;4.466;2023-02-12T06:57:17;2.85;;;1.25;;
66272;SDS011;58450;52.150;4.466;2023-02-12T06:59:44;2.38;;;1.15;;
66272;SDS011;58450;52.150;4.466;2023-02-12T07:02:12;3.95;;;1.40;;
66272;SDS011;58450;52.150;4.466;2023-02-12T07:04:39;3.78;;;1.40;;
66272;SDS011;58450;52.150;4.466;2023-02-12T07:07:07;2.80;;;1.50;;
66272;SDS011;58450;52.150;4.466;2023-02-12T07:09:36;4.85;;;1.30;;
66272;SDS011;58450;52.150;4.466;2023-02-12T07:12:03;3.20;;;1.30;;
66272;SDS011;58450;52.150;4.466;2023-02-12T07:14:32;1.75;;;1.27;;
66272;SDS011;58450;52.150;4.466;2023-02-12T07:16:59;3.28;;;1.63;;
66272;SDS011;58450;52.150;4.466;2023-02-12T07:19:28;4.43;;;1.85;;
66272;SDS011;58450;52.150;4.466;2023-02-12T07:21:56;3.70;;;1.95;;
66272;SDS011;58450;52.150;4.466;2023-02-12T07:24:23;5.63;;;2.50;;
66272;SDS011;58450;52.150;4.466;2023-02-12T07:26:52;5.05;;;2.00;;
66272;SDS011;58450;52.150;4.466;2023-02-12T07:29:20;5.72;;;1.92;;
66272;SDS011;58450;52.150;4.466;2023-02-12T07:31:48;5.18;;;2.15;;
66272;SDS011;58450;52.150;4.466;2023-02-12T07:34:15;3.40;;;1.98;;
66272;SDS011;58450;52.150;4.466;2023-02-12T07:36:43;5.55;;;2.22;;
66272;SDS011;58450;52.150;4.466;2023-02-12T07:39:10;5.88;;;2.00;;
66272;SDS011;58450;52.150;4.466;2023-02-12T07:41:38;4.97;;;2.00;;
66272;SDS011;58450;52.150;4.466;2023-02-12T07:44:09;9.05;;;2.50;;
66272;SDS011;58450;52.150;4.466;2023-02-12T07:46:39;6.93;;;2.60;;
66272;SDS011;58450;52.150;4.466;2023-02-12T07:49:10;6.32;;;2.92;;
66272;SDS011;58450;52.150;4.466;2023-02-12T07:51:40;6.95;;;2.60;;
66272;SDS011;58450;52.150;4.466;2023-02-12T07:54:08;7.80;;;2.60;;
66272;SDS011;58450;52.150;4.466;2023-02-12T07:56:37;4.40;;;2.60;;
66272;SDS011;58450;52.150;4.466;2023-02-12T07:59:09;3.85;;;2.63;;
66272;SDS011;58450;52.150;4.466;2023-02-12T08:01:39;5.53;;;3.13;;
66272;SDS011;58450;52.150;4.466;2023-02-12T08:04:10;5.60;;;3.40;;
66272;SDS011;58450;52.150;4.466;2023-02-12T08:06:41;4.53;;;2.95;;
66272;SDS011;58450;52.150;4.466;2023-02-12T08:09:11;5.38;;;2.92;;
66272;SDS011;58450;52.150;4.466;2023-02-12T08:11:42;5.38;;;3.10;;
66272;SDS011;58450;52.150;4.466;2023-02-12T08:14:12;6.13;;;3.30;;
66272;SDS011;58450;52.150;4.466;2023-02-12T08:16:43;5.60;;;3.30;;
66272;SDS011;58450;52.150;4.466;2023-02-12T08:19:13;6.20;;;3.17;;
66272;SDS011;58450;52.150;4.466;2023-02-12T08:21:42;8.90;;;4.00;;
66272;SDS011;58450;52.150;4.466;2023-02-12T08:24:09;5.22;;;3.20;;
66272;SDS011;58450;52.150;4.466;2023-02-12T08:26:37;4.45;;;3.28;;
66272;SDS011;58450;52.150;4.466;2023-02-12T08:29:06;6.22;;;3.60;;
66272;SDS011;58450;52.150;4.466;2023-02-12T08:31:38;6.22;;;3.47;;
66272;SDS011;58450;52.150;4.466;2023-02-12T08:34:10;6.75;;;3.40;;
66272;SDS011;58450;52.150;4.466;2023-02-12T08:36:44;6.70;;;3.92;;
66272;SDS011;58450;52.150;4.466;2023-02-12T08:39:14;6.95;;;3.60;;
66272;SDS011;58450;52.150;4.466;2023-02-12T08:41:43;8.82;;;4.20;;
66272;SDS011;58450;52.150;4.466;2023-02-12T08:44:11;6.80;;;4.25;;
66272;SDS011;58450;52.150;4.466;2023-02-12T08:46:43;8.65;;;4.20;;
66272;SDS011;58450;52.150;4.466;2023-02-12T08:49:15;5.85;;;3.55;;
66272;SDS011;58450;52.150;4.466;2023-02-12T08:51:45;5.50;;;3.85;;
66272;SDS011;58450;52.150;4.466;2023-02-12T08:54:16;6.43;;;4.03;;
66272;SDS011;58450;52.150;4.466;2023-02-12T08:56:47;6.60;;;3.88;;
66272;SDS011;58450;52.150;4.466;2023-02-12T08:59:15;7.22;;;3.72;;
66272;SDS011;58450;52.150;4.466;2023-02-12T09:01:45;7.43;;;4.07;;
66272;SDS011;58450;52.150;4.466;2023-02-12T09:04:16;7.28;;;3.90;;
66272;SDS011;58450;52.150;4.466;2023-02-12T09:06:48;6.07;;;3.90;;
66272;SDS011;58450;52.150;4.466;2023-02-12T09:09:16;6.85;;;4.10;;
66272;SDS011;58450;52.150;4.466;2023-02-12T09:11:45;7.30;;;4.20;;
66272;SDS011;58450;52.150;4.466;2023-02-12T09:14:14;8.90;;;4.63;;
66272;SDS011;58450;52.150;4.466;2023-02-12T09:16:49;5.43;;;3.90;;
66272;SDS011;58450;52.150;4.466;2023-02-12T09:19:18;6.18;;;4.20;;
66272;SDS011;58450;52.150;4.466;2023-02-12T09:21:48;5.95;;;3.88;;
66272;SDS011;58450;52.150;4.466;2023-02-12T09:24:17;6.30;;;3.67;;
66272;SDS011;58450;52.150;4.466;2023-02-12T09:26:45;8.18;;;4.07;;
66272;SDS011;58450;52.150;4.466;2023-02-12T09:29:12;7.35;;;4.22;;
66272;SDS011;58450;52.150;4.466;2023-02-12T09:31:40;6.20;;;4.30;;
66272;SDS011;58450;52.150;4.466;2023-02-12T09:34:08;7.63;;;4.57;;
66272;SDS011;58450;52.150;4.466;2023-02-12T09:36:36;8.65;;;4.93;;
66272;SDS011;58450;52.150;4.466;2023-02-12T09:39:04;8.43;;;5.45;;
66272;SDS011;58450;52.150;4.466;2023-02-12T09:41:44;8.13;;;5.45;;
66272;SDS011;58450;52.150;4.466;2023-02-12T09:44:28;7.28;;;5.15;;
66272;SDS011;58450;52.150;4.466;2023-02-12T09:47:09;7.63;;;5.03;;
66272;SDS011;58450;52.150;4.466;2023-02-12T09:49:53;7.53;;;4.53;;
66272;SDS011;58450;52.150;4.466;2023-02-12T09:52:32;9.07;;;5.13;;
66272;SDS011;58450;52.150;4.466;2023-02-12T09:55:02;7.82;;;5.25;;
66272;SDS011;58450;52.150;4.466;2023-02-12T09:57:31;7.60;;;5.10;;
66272;SDS011;58450;52.150;4.466;2023-02-12T10:00:02;7.55;;;4.88;;
66272;SDS011;58450;52.150;4.466;2023-02-12T10:02:34;7.53;;;4.85;;
66272;SDS011;58450;52.150;4.466;2023-02-12T10:05:13;8.20;;;5.10;;
66272;SDS011;58450;52.150;4.466;2023-02-12T10:07:49;9.70;;;5.25;;
66272;SDS011;58450;52.150;4.466;2023-02-12T10:10:38;10.65;;;6.03;;
66272;SDS011;58450;52.150;4.466;2023-02-12T10:13:21;9.50;;;6.20;;
66272;SDS011;58450;52.150;4.466;2023-02-12T10:16:05;10.45;;;6.03;;
66272;SDS011;58450;52.150;4.466;2023-02-12T10:18:54;10.85;;;6.10;;
66272;SDS011;58450;52.150;4.466;2023-02-12T10:21:46;11.60;;;6.55;;
66272;SDS011;58450;52.150;4.466;2023-02-12T10:24:43;11.55;;;6.32;;
66272;SDS011;58450;52.150;4.466;2023-02-12T10:27:29;10.48;;;6.75;;
66272;SDS011;58450;52.150;4.466;2023-02-12T10:30:13;10.75;;;6.20;;
66272;SDS011;58450;52.150;4.466;2023-02-12T10:32:46;9.18;;;6.28;;
66272;SDS011;58450;52.150;4.466;2023-02-12T10:35:19;10.60;;;5.93;;
66272;SDS011;58450;52.150;4.466;2023-02-12T10:37:51;11.88;;;6.00;;
66272;SDS011;58450;52.150;4.466;2023-02-12T10:40:27;8.63;;;6.07;;
66272;SDS011;58450;52.150;4.466;2023-02-12T10:42:58;11.35;;;5.82;;
66272;SDS011;58450;52.150;4.466;2023-02-12T10:45:29;10.25;;;5.95;;
66272;SDS011;58450;52.150;4.466;2023-02-12T10:48:04;9.82;;;5.90;;
66272;SDS011;58450;52.150;4.466;2023-02-12T10:53:40;10.13;;;5.85;;
66272;SDS011;58450;52.150;4.466;2023-02-12T10:56:14;10.57;;;5.57;;
66272;SDS011;58450;52.150;4.466;2023-02-12T10:58:52;10.00;;;5.55;;
66272;SDS011;58450;52.150;4.466;2023-02-12T11:01:25;10.40;;;6.13;;
66272;SDS011;58450;52.150;4.466;2023-02-12T11:03:56;8.35;;;5.45;;
66272;SDS011;58450;52.150;4.466;2023-02-12T11:06:50;9.25;;;5.40;;
66272;SDS011;58450;52.150;4.466;2023-02-12T11:09:29;9.43;;;5.40;;
66272;SDS011;58450;52.150;4.466;2023-02-12T11:12:05;8.55;;;5.63;;
66272;SDS011;58450;52.150;4.466;2023-02-12T11:14:47;8.00;;;5.78;;
66272;SDS011;58450;52.150;4.466;2023-02-12T11:17:23;10.35;;;6.10;;
66272;SDS011;58450;52.150;4.466;2023-02-12T11:22:52;10.93;;;5.63;;
66272;SDS011;58450;52.150;4.466;2023-02-12T11:25:26;8.25;;;5.70;;
66272;SDS011;58450;52.150;4.466;2023-02-12T11:28:00;9.80;;;5.63;;
66272;SDS011;58450;52.150;4.466;2023-02-12T11:30:47;9.23;;;5.43;;
66272;SDS011;58450;52.150;4.466;2023-02-12T11:33:22;8.85;;;5.82;;
66272;SDS011;58450;52.150;4.466;2023-02-12T11:35:54;10.90;;;6.25;;
66272;SDS011;58450;52.150;4.466;2023-02-12T11:38:26;10.32;;;6.18;;
66272;SDS011;58450;52.150;4.466;2023-02-12T11:41:01;10.20;;;6.47;;
66272;SDS011;58450;52.150;4.466;2023-02-12T11:43:34;9.45;;;6.00;;
66272;SDS011;58450;52.150;4.466;2023-02-12T11:46:05;10.02;;;6.05;;
66272;SDS011;58450;52.150;4.466;2023-02-12T11:48:34;10.15;;;5.75;;
66272;SDS011;58450;52.150;4.466;2023-02-12T11:51:06;11.10;;;5.80;;
66272;SDS011;58450;52.150;4.466;2023-02-12T11:53:46;9.52;;;6.45;;
66272;SDS011;58450;52.150;4.466;2023-02-12T11:56:18;11.63;;;6.65;;
66272;SDS011;58450;52.150;4.466;2023-02-12T11:58:47;9.73;;;6.70;;
66272;SDS011;58450;52.150;4.466;2023-02-12T12:01:18;10.57;;;6.28;;
66272;SDS011;58450;52.150;4.466;2023-02-12T12:03:54;11.63;;;6.40;;
66272;SDS011;58450;52.150;4.466;2023-02-12T12:06:30;10.43;;;6.68;;
66272;SDS011;58450;52.150;4.466;2023-02-12T12:09:03;13.95;;;8.15;;
66272;SDS011;58450;52.150;4.466;2023-02-12T12:11:46;13.57;;;8.20;;
66272;SDS011;58450;52.150;4.466;2023-02-12T12:14:24;15.85;;;8.23;;
66272;SDS011;58450;52.150;4.466;2023-02-12T12:19:50;13.73;;;7.47;;
66272;SDS011;58450;52.150;4.466;2023-02-12T12:22:27;11.63;;;6.18;;
66272;SDS011;58450;52.150;4.466;2023-02-12T12:25:09;9.75;;;6.07;;
66272;SDS011;58450;52.150;4.466;2023-02-12T12:27:52;10.85;;;6.07;;
66272;SDS011;58450;52.150;4.466;2023-02-12T12:30:46;11.73;;;6.70;;
66272;SDS011;58450;52.150;4.466;2023-02-12T12:33:27;10.32;;;6.50;;
66272;SDS011;58450;52.150;4.466;2023-02-12T12:39:26;12.50;;;7.03;;
66272;SDS011;58450;52.150;4.466;2023-02-12T12:45:23;10.48;;;6.90;;
66272;SDS011;58450;52.150;4.466;2023-02-12T12:48:12;11.10;;;6.80;;
66272;SDS011;58450;52.150;4.466;2023-02-12T12:51:02;11.45;;;6.20;;
66272;SDS011;58450;52.150;4.466;2023-02-12T12:53:49;10.10;;;6.68;;
66272;SDS011;58450;52.150;4.466;2023-02-12T12:56:35;10.70;;;6.97;;
66272;SDS011;58450;52.150;4.466;2023-02-12T12:59:37;12.07;;;6.47;;
66272;SDS011;58450;52.150;4.466;2023-02-12T13:03:04;11.02;;;5.85;;
66272;SDS011;58450;52.150;4.466;2023-02-12T13:06:17;8.75;;;5.65;;
66272;SDS011;58450;52.150;4.466;2023-02-12T13:09:07;9.23;;;6.00;;
66272;SDS011;58450;52.150;4.466;2023-02-12T13:11:55;10.57;;;6.35;;
66272;SDS011;58450;52.150;4.466;2023-02-12T13:14:40;11.43;;;6.22;;
66272;SDS011;58450;52.150;4.466;2023-02-12T13:17:18;9.18;;;5.93;;
66272;SDS011;58450;52.150;4.466;2023-02-12T13:19:59;8.63;;;5.38;;
66272;SDS011;58450;52.150;4.466;2023-02-12T13:22:44;8.93;;;6.07;;
66272;SDS011;58450;52.150;4.466;2023-02-12T13:25:22;11.13;;;6.15;;
66272;SDS011;58450;52.150;4.466;2023-02-12T13:27:56;9.15;;;6.05;;
66272;SDS011;58450;52.150;4.466;2023-02-12T13:30:28;9.30;;;5.60;;
66272;SDS011;58450;52.150;4.466;2023-02-12T13:33:05;8.35;;;5.85;;
66272;SDS011;58450;52.150;4.466;2023-02-12T13:35:40;13.00;;;6.05;;
66272;SDS011;58450;52.150;4.466;2023-02-12T13:38:14;11.57;;;6.45;;
66272;SDS011;58450;52.150;4.466;2023-02-12T13:40:48;9.65;;;6.03;;
66272;SDS011;58450;52.150;4.466;2023-02-12T13:43:22;10.57;;;6.13;;
66272;SDS011;58450;52.150;4.466;2023-02-12T13:46:10;10.07;;;5.45;;
66272;SDS011;58450;52.150;4.466;2023-02-12T13:48:52;9.88;;;6.30;;
66272;SDS011;58450;52.150;4.466;2023-02-12T13:51:36;10.00;;;6.18;;
66272;SDS011;58450;52.150;4.466;2023-02-12T13:54:21;10.00;;;6.03;;
66272;SDS011;58450;52.150;4.466;2023-02-12T13:57:07;9.82;;;6.00;;
66272;SDS011;58450;52.150;4.466;2023-02-12T13:59:41;11.27;;;6.35;;
66272;SDS011;58450;52.150;4.466;2023-02-12T14:02:25;10.75;;;6.40;;
66272;SDS011;58450;52.150;4.466;2023-02-12T14:05:23;10.10;;;6.60;;
66272;SDS011;58450;52.150;4.466;2023-02-12T14:07:56;11.07;;;6.95;;
66272;SDS011;58450;52.150;4.466;2023-02-12T14:10:29;12.10;;;6.95;;
66272;SDS011;58450;52.150;4.466;2023-02-12T14:13:17;12.65;;;7.03;;
66272;SDS011;58450;52.150;4.466;2023-02-12T14:15:49;10.15;;;6.28;;
66272;SDS011;58450;52.150;4.466;2023-02-12T14:30:23;13.13;;;7.50;;
66272;SDS011;58450;52.150;4.466;2023-02-12T14:41:37;14.27;;;8.43;;
66272;SDS011;58450;52.150;4.466;2023-02-12T14:52:53;11.52;;;7.10;;
66272;SDS011;58450;52.150;4.466;2023-02-12T14:55:31;12.18;;;7.50;;
66272;SDS011;58450;52.150;4.466;2023-02-12T14:58:03;12.48;;;7.78;;
66272;SDS011;58450;52.150;4.466;2023-02-12T15:00:43;12.65;;;7.65;;
66272;SDS011;58450;52.150;4.466;2023-02-12T15:03:18;12.50;;;7.20;;
66272;SDS011;58450;52.150;4.466;2023-02-12T15:06:01;12.63;;;7.88;;
66272;SDS011;58450;52.150;4.466;2023-02-12T15:08:39;11.30;;;7.68;;
66272;SDS011;58450;52.150;4.466;2023-02-12T15:11:25;14.02;;;8.52;;
66272;SDS011;58450;52.150;4.466;2023-02-12T15:14:06;12.10;;;7.38;;
66272;SDS011;58450;52.150;4.466;2023-02-12T15:16:48;15.05;;;9.18;;
66272;SDS011;58450;52.150;4.466;2023-02-12T15:19:31;13.90;;;8.80;;
66272;SDS011;58450;52.150;4.466;2023-02-12T15:22:15;12.63;;;8.77;;
66272;SDS011;58450;52.150;4.466;2023-02-12T15:24:48;15.13;;;9.40;;
66272;SDS011;58450;52.150;4.466;2023-02-12T15:27:17;16.38;;;10.05;;
66272;SDS011;58450;52.150;4.466;2023-02-12T15:29:49;14.25;;;9.88;;
66272;SDS011;58450;52.150;4.466;2023-02-12T15:32:21;15.20;;;9.90;;
66272;SDS011;58450;52.150;4.466;2023-02-12T15:37:21;18.70;;;11.60;;
66272;SDS011;58450;52.150;4.466;2023-02-12T15:39:54;16.15;;;11.35;;
66272;SDS011;58450;52.150;4.466;2023-02-12T15:42:27;18.20;;;11.38;;
66272;SDS011;58450;52.150;4.466;2023-02-12T15:45:03;15.98;;;11.10;;
66272;SDS011;58450;52.150;4.466;2023-02-12T15:47:44;17.92;;;11.32;;
66272;SDS011;58450;52.150;4.466;2023-02-12T15:50:23;17.27;;;10.57;;
66272;SDS011;58450;52.150;4.466;2023-02-12T15:52:52;16.70;;;11.13;;
66272;SDS011;58450;52.150;4.466;2023-02-12T15:55:22;16.23;;;11.05;;
66272;SDS011;58450;52.150;4.466;2023-02-12T15:57:54;15.95;;;11.00;;
66272;SDS011;58450;52.150;4.466;2023-02-12T16:00:28;18.25;;;12.10;;
66272;SDS011;58450;52.150;4.466;2023-02-12T16:03:05;17.83;;;12.23;;
66272;SDS011;58450;52.150;4.466;2023-02-12T16:05:46;18.13;;;11.85;;
66272;SDS011;58450;52.150;4.466;2023-02-12T16:08:16;16.83;;;11.20;;
66272;SDS011;58450;52.150;4.466;2023-02-12T16:10:48;15.93;;;11.38;;
66272;SDS011;58450;52.150;4.466;2023-02-12T16:13:22;18.05;;;11.38;;
66272;SDS011;58450;52.150;4.466;2023-02-12T16:16:05;19.42;;;12.30;;
66272;SDS011;58450;52.150;4.466;2023-02-12T16:18:45;19.90;;;12.57;;